createdAt,value
2017-09-05T00:02:13.025Z,7.20
2017-09-05T00:04:39.660Z,7.30
2017-09-05T00:07:06.030Z,7.07
2017-09-05T00:09:51.532Z,6.70
2017-09-05T00:15:35.322Z,7.40
2017-09-05T00:18:05.488Z,7.83
2017-09-05T00:20:34.647Z,7.43
2017-09-05T00:23:00.939Z,8.20
2017-09-05T00:25:27.262Z,7.50
2017-09-05T00:27:53.536Z,7.00
2017-09-05T00:30:19.832Z,7.20
2017-09-05T00:32:46.087Z,7.10
2017-09-05T00:35:12.791Z,8.23
2017-09-05T00:37:39.071Z,6.80
2017-09-05T00:40:05.384Z,6.40
2017-09-05T00:42:32.094Z,7.47
2017-09-05T00:44:58.506Z,7.40
2017-09-05T00:47:24.818Z,7.60
2017-09-05T00:49:51.426Z,7.17
2017-09-05T00:52:17.747Z,7.00
2017-09-05T00:54:44.097Z,7.37
2017-09-05T00:57:10.838Z,8.30
2017-09-05T00:59:37.184Z,7.77
2017-09-05T01:02:03.453Z,7.43
2017-09-05T01:04:30.217Z,7.57
2017-09-05T01:06:56.526Z,6.73
2017-09-05T01:09:22.838Z,7.30
2017-09-05T01:11:49.538Z,7.30
2017-09-05T01:14:15.937Z,7.80
2017-09-05T01:16:42.276Z,8.30
2017-09-05T01:19:09.004Z,9.00
2017-09-05T01:21:35.391Z,7.80
2017-09-05T01:24:01.700Z,7.93
2017-09-05T01:26:28.381Z,7.87
2017-09-05T01:28:54.655Z,8.17
2017-09-05T01:31:20.968Z,8.53
2017-09-05T01:33:47.518Z,9.30
2017-09-05T01:36:13.805Z,7.90
2017-09-05T01:38:40.123Z,8.03
2017-09-05T01:41:06.783Z,8.30
2017-09-05T01:43:33.108Z,7.37
2017-09-05T01:45:59.527Z,7.50
2017-09-05T01:48:26.174Z,7.77
2017-09-05T01:50:52.401Z,7.13
2017-09-05T01:53:18.710Z,6.80
2017-09-05T01:55:45.420Z,6.87
2017-09-05T01:58:11.735Z,6.67
2017-09-05T02:00:38.052Z,7.33
2017-09-05T02:03:04.633Z,6.70
2017-09-05T02:05:30.936Z,7.07
2017-09-05T02:07:57.235Z,6.80
2017-09-05T02:10:23.925Z,7.60
2017-09-05T02:12:50.234Z,7.00
2017-09-05T02:15:16.574Z,7.10
2017-09-05T02:17:43.191Z,6.90
2017-09-05T02:20:09.516Z,7.30
2017-09-05T02:22:35.813Z,7.63
2017-09-05T02:25:02.365Z,7.30
2017-09-05T02:27:28.646Z,8.20
2017-09-05T02:29:54.921Z,7.87
2017-09-05T02:32:21.514Z,8.00
2017-09-05T02:34:47.770Z,7.97
2017-09-05T02:37:14.040Z,7.93
2017-09-05T02:39:40.725Z,8.47
2017-09-05T02:42:07.075Z,8.90
2017-09-05T02:44:33.399Z,8.20
2017-09-05T02:47:00.083Z,8.97
2017-09-05T02:49:26.385Z,9.30
2017-09-05T02:51:52.722Z,8.47
2017-09-05T02:54:19.404Z,9.13
2017-09-05T02:56:45.687Z,8.90
2017-09-05T02:59:12.022Z,8.33
2017-09-05T03:01:38.688Z,8.40
2017-09-05T03:04:04.961Z,8.40
2017-09-05T03:06:31.255Z,9.23
2017-09-05T03:08:57.879Z,8.57
2017-09-05T03:11:24.124Z,6.77
2017-09-05T03:13:50.443Z,6.50
2017-09-05T03:16:17.096Z,7.27
2017-09-05T03:18:43.404Z,7.90
2017-09-05T03:21:09.758Z,6.90
2017-09-05T03:23:36.409Z,6.73
2017-09-05T03:26:02.687Z,6.53
2017-09-05T03:28:29.036Z,7.30
2017-09-05T03:30:55.720Z,6.77
2017-09-05T03:33:22.026Z,7.20
2017-09-05T03:35:48.269Z,7.40
2017-09-05T03:38:14.896Z,7.60
2017-09-05T03:40:41.219Z,8.23
2017-09-05T03:43:07.481Z,7.80
2017-09-05T03:45:33.803Z,7.40
2017-09-05T03:48:00.131Z,8.80
2017-09-05T03:50:26.448Z,8.20
2017-09-05T03:52:52.736Z,7.90
2017-09-05T03:55:18.976Z,8.73
2017-09-05T03:57:45.652Z,9.50
2017-09-05T04:00:12.008Z,9.07
2017-09-05T04:02:38.289Z,8.90
2017-09-05T04:05:04.586Z,8.67
2017-09-05T04:07:30.892Z,8.50
2017-09-05T04:09:57.265Z,8.90
2017-09-05T04:12:23.579Z,7.63
2017-09-05T04:14:49.871Z,8.47
2017-09-05T04:17:16.200Z,9.17
2017-09-05T04:19:42.516Z,8.30
2017-09-05T04:22:08.780Z,8.90
2017-09-05T04:24:35.107Z,8.73
2017-09-05T04:27:01.433Z,10.17
2017-09-05T04:29:27.768Z,9.10
2017-09-05T04:31:54.102Z,9.80
2017-09-05T04:34:20.751Z,10.43
2017-09-05T04:36:47.044Z,10.27
2017-09-05T04:39:13.325Z,10.90
2017-09-05T04:41:40.021Z,9.80
2017-09-05T04:44:12.078Z,10.30
2017-09-05T04:46:38.355Z,11.27
2017-09-05T04:49:04.642Z,11.83
2017-09-05T04:51:30.908Z,11.03
2017-09-05T04:53:57.274Z,11.27
2017-09-05T04:56:23.575Z,11.00
2017-09-05T04:58:49.858Z,11.83
2017-09-05T05:01:16.203Z,12.47
2017-09-05T05:03:42.516Z,11.93
2017-09-05T05:06:09.223Z,11.30
2017-09-05T05:08:35.554Z,11.97
2017-09-05T05:11:01.915Z,13.93
2017-09-05T05:13:28.187Z,11.37
2017-09-05T05:15:54.434Z,12.40
2017-09-05T05:18:20.734Z,10.83
2017-09-05T05:20:47.050Z,12.00
2017-09-05T05:23:13.321Z,11.77
2017-09-05T05:25:39.657Z,12.03
2017-09-05T05:28:05.977Z,12.03
2017-09-05T05:30:32.589Z,13.00
2017-09-05T05:32:58.930Z,12.70
2017-09-05T05:35:25.218Z,12.10
2017-09-05T05:37:51.517Z,12.97
2017-09-05T05:40:17.846Z,12.80
2017-09-05T05:42:44.117Z,13.27
2017-09-05T05:45:10.436Z,12.53
2017-09-05T05:47:36.739Z,14.70
2017-09-05T05:50:03.086Z,14.93
2017-09-05T05:52:29.398Z,15.63
2017-09-05T05:54:56.051Z,14.30
2017-09-05T05:57:22.466Z,14.27
2017-09-05T05:59:48.768Z,12.70
2017-09-05T06:02:15.102Z,13.93
2017-09-05T06:04:41.442Z,13.77
2017-09-05T06:07:07.726Z,13.60
2017-09-05T06:09:34.331Z,12.33
2017-09-05T06:12:00.941Z,13.60
2017-09-05T06:14:27.247Z,13.27
2017-09-05T06:16:53.507Z,13.03
2017-09-05T06:19:20.124Z,13.77
2017-09-05T06:21:46.441Z,13.10
2017-09-05T06:24:12.740Z,13.10
2017-09-05T06:26:39.072Z,13.80
2017-09-05T06:29:05.333Z,14.10
2017-09-05T06:31:31.639Z,13.80
2017-09-05T06:33:57.998Z,13.80
2017-09-05T06:36:24.322Z,14.10
2017-09-05T06:38:50.656Z,13.60
2017-09-05T06:41:16.907Z,14.03
2017-09-05T06:43:43.629Z,15.07
2017-09-05T06:46:09.933Z,14.83
2017-09-05T06:48:36.282Z,14.47
2017-09-05T06:51:02.555Z,12.80
2017-09-05T06:53:29.024Z,13.90
2017-09-05T06:55:55.320Z,13.83
2017-09-05T06:58:21.595Z,13.77
2017-09-05T07:00:48.206Z,12.50
2017-09-05T07:03:14.557Z,13.90
2017-09-05T07:05:40.830Z,13.07
2017-09-05T07:08:07.502Z,13.20
2017-09-05T07:10:33.839Z,13.30
2017-09-05T07:13:00.157Z,13.70
2017-09-05T07:15:26.572Z,13.83
2017-09-05T07:17:52.838Z,14.10
2017-09-05T07:20:19.538Z,14.07
2017-09-05T07:22:45.781Z,13.93
2017-09-05T07:25:12.544Z,14.70
2017-09-05T07:27:38.877Z,12.93
2017-09-05T07:30:05.877Z,12.20
2017-09-05T07:32:32.612Z,11.60
2017-09-05T07:34:58.933Z,12.13
2017-09-05T07:37:25.265Z,12.13
2017-09-05T07:39:51.632Z,11.50
2017-09-05T07:42:17.910Z,11.60
2017-09-05T07:44:44.524Z,12.10
2017-09-05T07:47:10.833Z,11.23
2017-09-05T07:49:37.157Z,11.50
2017-09-05T07:52:03.456Z,10.13
2017-09-05T07:54:29.720Z,10.57
2017-09-05T07:56:55.978Z,10.17
2017-09-05T07:59:22.655Z,10.10
2017-09-05T08:01:48.974Z,9.93
2017-09-05T08:04:15.313Z,9.80
2017-09-05T08:06:41.938Z,8.93
2017-09-05T08:09:08.222Z,9.23
2017-09-05T08:11:34.511Z,9.27
2017-09-05T08:14:00.822Z,8.10
2017-09-05T08:16:27.109Z,7.93
2017-09-05T08:18:53.434Z,7.40
2017-09-05T08:21:20.513Z,8.13
2017-09-05T08:23:46.784Z,8.00
2017-09-05T08:26:13.073Z,8.07
2017-09-05T08:28:40.027Z,9.00
2017-09-05T08:31:06.713Z,7.60
2017-09-05T08:33:32.985Z,6.50
2017-09-05T08:35:59.566Z,8.00
2017-09-05T08:38:25.936Z,7.27
2017-09-05T08:40:52.183Z,7.30
2017-09-05T08:43:19.006Z,8.37
2017-09-05T08:45:45.339Z,6.70
2017-09-05T08:48:11.757Z,6.80
2017-09-05T08:50:38.105Z,7.57
2017-09-05T08:53:04.376Z,6.90
2017-09-05T08:55:31.031Z,7.20
2017-09-05T08:57:57.340Z,7.70
2017-09-05T09:00:23.618Z,6.70
2017-09-05T09:02:49.883Z,6.40
2017-09-05T09:05:16.214Z,7.20
2017-09-05T09:07:42.982Z,7.60
2017-09-05T09:10:09.285Z,6.50
2017-09-05T09:12:35.574Z,6.17
2017-09-05T09:15:01.929Z,5.97
2017-09-05T09:17:28.284Z,7.10
2017-09-05T09:19:54.583Z,6.40
2017-09-05T09:22:20.821Z,6.37
2017-09-05T09:24:47.099Z,6.80
2017-09-05T09:27:13.364Z,6.67
2017-09-05T09:29:39.670Z,7.17
2017-09-05T09:32:06.264Z,6.60
2017-09-05T09:34:32.514Z,5.83
2017-09-05T09:36:58.807Z,6.40
2017-09-05T09:39:25.100Z,6.60
2017-09-05T09:41:51.368Z,7.43
2017-09-05T09:44:17.677Z,7.13
2017-09-05T09:46:44.004Z,6.23
2017-09-05T09:49:10.352Z,6.83
2017-09-05T09:51:36.669Z,6.30
2017-09-05T09:54:02.969Z,6.53
2017-09-05T09:56:29.654Z,6.53
2017-09-05T09:58:56.100Z,5.87
2017-09-05T10:01:22.435Z,6.33
2017-09-05T10:03:48.773Z,6.47
2017-09-05T10:06:15.072Z,5.90
2017-09-05T10:08:41.838Z,5.43
2017-09-05T10:11:08.147Z,5.80
2017-09-05T10:13:34.421Z,5.90
2017-09-05T10:16:00.791Z,6.20
2017-09-05T10:18:27.079Z,6.43
2017-09-05T10:20:54.113Z,6.17
2017-09-05T10:23:20.421Z,7.20
2017-09-05T10:25:47.462Z,7.00
2017-09-05T10:28:14.938Z,6.00
2017-09-05T10:30:41.248Z,6.23
2017-09-05T10:33:08.049Z,6.63
2017-09-05T10:35:34.324Z,6.80
2017-09-05T10:38:00.609Z,6.67
2017-09-05T10:40:26.917Z,6.23
2017-09-05T10:42:53.641Z,6.33
2017-09-05T10:45:19.964Z,7.33
2017-09-05T10:47:46.245Z,7.00
2017-09-05T10:50:13.716Z,7.30
2017-09-05T10:52:40.105Z,7.53
2017-09-05T10:55:06.440Z,7.53
2017-09-05T10:57:33.194Z,6.37
2017-09-05T10:59:59.937Z,7.20
2017-09-05T11:02:26.197Z,8.60
2017-09-05T11:04:52.551Z,7.57
2017-09-05T11:07:18.858Z,7.30
2017-09-05T11:09:45.189Z,7.07
2017-09-05T11:12:11.500Z,6.10
2017-09-05T11:14:37.817Z,5.97
2017-09-05T11:17:04.125Z,6.97
2017-09-05T11:19:30.433Z,6.90
2017-09-05T11:21:57.186Z,7.00
2017-09-05T11:24:23.458Z,6.77
2017-09-05T11:26:49.739Z,6.33
2017-09-05T11:29:16.002Z,6.43
2017-09-05T11:31:42.311Z,5.80
2017-09-05T11:34:08.601Z,6.87
2017-09-05T11:36:35.034Z,6.00
2017-09-05T11:39:01.383Z,6.60
2017-09-05T11:41:27.748Z,6.10
2017-09-05T11:43:54.505Z,6.30
2017-09-05T11:46:20.761Z,5.60
2017-09-05T11:48:47.076Z,6.10
2017-09-05T11:51:13.766Z,5.20
2017-09-05T11:53:40.170Z,5.07
2017-09-05T11:56:06.916Z,5.27
2017-09-05T11:58:33.174Z,5.90
2017-09-05T12:00:59.605Z,5.83
2017-09-05T12:03:26.390Z,5.53
2017-09-05T12:05:52.671Z,4.80
2017-09-05T12:08:18.889Z,4.30
2017-09-05T12:10:45.219Z,4.90
2017-09-05T12:13:11.590Z,5.10
2017-09-05T12:15:37.954Z,4.97
2017-09-05T12:18:04.229Z,5.20
2017-09-05T12:20:30.592Z,4.83
2017-09-05T12:22:56.976Z,5.13
2017-09-05T12:25:23.253Z,4.40
2017-09-05T12:27:49.603Z,4.50
2017-09-05T12:30:15.991Z,4.10
2017-09-05T12:32:42.321Z,4.80
2017-09-05T12:35:08.657Z,5.00
2017-09-05T12:37:35.015Z,4.60
2017-09-05T12:40:01.712Z,4.13
2017-09-05T12:42:28.037Z,4.30
2017-09-05T12:44:54.381Z,4.23
2017-09-05T12:47:21.080Z,4.30
2017-09-05T12:49:47.561Z,4.73
2017-09-05T12:52:13.863Z,4.40
2017-09-05T12:54:40.198Z,3.57
2017-09-05T12:57:06.480Z,4.57
2017-09-05T12:59:32.847Z,3.97
2017-09-05T13:01:59.110Z,3.57
2017-09-05T13:04:25.387Z,4.50
2017-09-05T13:06:51.812Z,4.33
2017-09-05T13:09:18.122Z,4.20
2017-09-05T13:11:44.493Z,3.93
2017-09-05T13:14:10.815Z,3.40
2017-09-05T13:16:37.070Z,3.20
2017-09-05T13:19:03.412Z,3.50
2017-09-05T13:21:29.702Z,3.40
2017-09-05T13:23:56.427Z,3.90
2017-09-05T13:26:22.686Z,4.33
2017-09-05T13:28:48.979Z,4.07
2017-09-05T13:31:15.273Z,3.40
2017-09-05T13:33:41.539Z,4.10
2017-09-05T13:36:07.830Z,3.80
2017-09-05T13:38:34.582Z,3.97
2017-09-05T13:41:00.821Z,3.83
2017-09-05T13:43:27.125Z,3.30
2017-09-05T13:45:53.453Z,3.20
2017-09-05T13:48:19.734Z,3.47
2017-09-05T13:50:46.068Z,3.20
2017-09-05T13:53:12.819Z,3.17
2017-09-05T13:55:39.139Z,3.20
2017-09-05T13:58:05.439Z,3.83
2017-09-05T14:00:31.725Z,3.00
2017-09-05T14:02:58.030Z,3.00
2017-09-05T14:05:24.330Z,3.47
2017-09-05T14:07:50.595Z,3.03
2017-09-05T14:10:16.981Z,2.87
2017-09-05T14:12:43.239Z,3.30
2017-09-05T14:15:09.938Z,3.60
2017-09-05T14:17:36.281Z,2.80
2017-09-05T14:20:02.629Z,3.07
2017-09-05T14:22:28.987Z,2.97
2017-09-05T14:24:55.307Z,3.50
2017-09-05T14:27:21.652Z,2.80
2017-09-05T14:29:48.001Z,2.50
2017-09-05T14:32:14.340Z,2.50
2017-09-05T14:34:40.651Z,2.63
2017-09-05T14:37:06.980Z,2.33
2017-09-05T14:39:33.278Z,2.40
2017-09-05T14:41:59.571Z,2.80
2017-09-05T14:44:25.947Z,2.90
2017-09-05T14:46:52.293Z,3.13
2017-09-05T14:49:18.584Z,3.00
2017-09-05T14:51:45.190Z,3.17
2017-09-05T14:54:11.469Z,3.20
2017-09-05T14:56:37.795Z,3.30
2017-09-05T14:59:04.101Z,3.27
2017-09-05T15:01:30.396Z,3.40
2017-09-05T15:03:56.772Z,3.40
2017-09-05T15:06:23.047Z,3.00
2017-09-05T15:08:49.317Z,4.03
2017-09-05T15:11:15.704Z,4.57
2017-09-05T15:13:42.134Z,3.97
2017-09-05T15:16:08.438Z,4.83
2017-09-05T15:18:34.763Z,3.90
2017-09-05T15:21:01.089Z,4.23
2017-09-05T15:23:27.378Z,4.00
2017-09-05T15:25:53.737Z,4.13
2017-09-05T15:28:20.400Z,3.50
2017-09-05T15:30:46.723Z,3.90
2017-09-05T15:33:13.013Z,4.20
2017-09-05T15:35:39.310Z,3.90
2017-09-05T15:38:05.594Z,3.93
2017-09-05T15:40:31.865Z,3.70
2017-09-05T15:42:58.184Z,3.33
2017-09-05T15:45:24.512Z,3.23
2017-09-05T15:47:50.838Z,3.40
2017-09-05T15:50:17.132Z,3.40
2017-09-05T15:52:43.410Z,3.03
2017-09-05T15:55:09.675Z,3.37
2017-09-05T15:57:36.000Z,3.27
2017-09-05T16:00:02.351Z,3.77
2017-09-05T16:02:28.624Z,4.07
2017-09-05T16:04:55.283Z,3.90
2017-09-05T16:07:21.561Z,3.77
2017-09-05T16:09:47.870Z,3.70
2017-09-05T16:12:14.569Z,3.80
2017-09-05T16:14:40.845Z,4.43
2017-09-05T16:17:07.173Z,3.30
2017-09-05T16:19:33.482Z,4.40
2017-09-05T16:21:59.769Z,3.30
2017-09-05T16:24:26.050Z,3.90
2017-09-05T16:26:52.713Z,3.47
2017-09-05T16:29:19.081Z,3.10
2017-09-05T16:31:45.388Z,3.47
2017-09-05T16:34:12.062Z,3.77
2017-09-05T16:36:38.379Z,3.80
2017-09-05T16:39:04.685Z,3.40
2017-09-05T16:41:31.029Z,3.70
2017-09-05T16:43:57.379Z,3.50
2017-09-05T16:46:23.626Z,3.57
2017-09-05T16:48:49.913Z,6.10
2017-09-05T16:51:16.146Z,6.87
2017-09-05T16:53:42.483Z,7.70
2017-09-05T16:56:08.813Z,7.43
2017-09-05T16:58:35.099Z,5.63
2017-09-05T17:01:01.495Z,4.00
2017-09-05T17:03:27.903Z,3.90
2017-09-05T17:05:54.208Z,3.27
2017-09-05T17:08:20.513Z,3.17
2017-09-05T17:10:47.246Z,3.80
2017-09-05T17:13:13.554Z,3.83
2017-09-05T17:15:39.865Z,4.03
2017-09-05T17:18:06.214Z,3.80
2017-09-05T17:20:32.503Z,3.83
2017-09-05T17:22:58.809Z,3.33
2017-09-05T17:25:25.262Z,3.10
2017-09-05T17:27:51.666Z,3.43
2017-09-05T17:30:18.056Z,4.37
2017-09-05T17:32:44.858Z,3.17
2017-09-05T17:35:11.156Z,3.80
2017-09-05T17:37:37.514Z,4.00
2017-09-05T17:40:03.822Z,3.80
2017-09-05T17:42:30.146Z,3.53
2017-09-05T17:44:56.477Z,4.27
2017-09-05T17:47:22.843Z,3.70
2017-09-05T17:49:49.258Z,3.63
2017-09-05T17:52:15.629Z,4.00
2017-09-05T17:54:42.018Z,3.87
2017-09-05T17:57:09.536Z,4.50
2017-09-05T17:59:35.875Z,4.47
2017-09-05T18:02:02.293Z,4.50
2017-09-05T18:04:28.611Z,3.80
2017-09-05T18:06:54.901Z,4.30
2017-09-05T18:09:21.280Z,4.57
2017-09-05T18:11:47.589Z,4.70
2017-09-05T18:14:13.960Z,5.37
2017-09-05T18:16:40.330Z,5.97
2017-09-05T18:19:06.699Z,6.50
2017-09-05T18:21:33.397Z,7.13
2017-09-05T18:23:59.655Z,7.30
2017-09-05T18:26:25.922Z,6.50
2017-09-05T18:28:52.220Z,7.00
2017-09-05T18:31:18.465Z,6.37
2017-09-05T18:33:45.085Z,6.53
2017-09-05T18:36:11.350Z,7.23
2017-09-05T18:38:37.727Z,6.23
2017-09-05T18:41:04.039Z,5.70
2017-09-05T18:43:30.395Z,5.90
2017-09-05T18:45:57.064Z,6.00
2017-09-05T18:48:23.436Z,5.90
2017-09-05T18:50:49.719Z,4.40
2017-09-05T18:53:16.050Z,4.87
2017-09-05T18:55:42.346Z,5.40
2017-09-05T18:58:09.027Z,5.07
2017-09-05T19:00:35.384Z,5.40
2017-09-05T19:03:01.725Z,5.07
2017-09-05T19:05:28.433Z,5.20
2017-09-05T19:07:54.681Z,5.40
2017-09-05T19:10:20.934Z,4.80
2017-09-05T19:12:47.675Z,5.50
2017-09-05T19:15:13.995Z,5.67
2017-09-05T19:17:40.328Z,4.87
2017-09-05T19:20:06.635Z,5.10
2017-09-05T19:22:32.958Z,4.50
2017-09-05T19:24:59.298Z,5.47
2017-09-05T19:27:25.599Z,5.57
2017-09-05T19:29:51.870Z,6.20
2017-09-05T19:32:18.282Z,5.93
2017-09-05T19:34:44.692Z,6.57
2017-09-05T19:37:10.978Z,7.13
2017-09-05T19:39:37.287Z,6.10
2017-09-05T19:42:03.608Z,5.90
2017-09-05T19:44:30.006Z,6.40
2017-09-05T19:46:56.299Z,6.40
2017-09-05T19:49:22.985Z,5.50
2017-09-05T19:51:49.231Z,6.20
2017-09-05T19:54:15.479Z,6.37
2017-09-05T19:56:42.157Z,6.00
2017-09-05T19:59:08.464Z,6.00
2017-09-05T20:01:34.742Z,6.10
2017-09-05T20:04:01.031Z,6.50
2017-09-05T20:06:27.337Z,6.17
2017-09-05T20:08:53.654Z,7.43
2017-09-05T20:11:20.328Z,6.90
2017-09-05T20:13:46.626Z,6.83
2017-09-05T20:16:12.927Z,6.83
2017-09-05T20:18:39.243Z,6.40
2017-09-05T20:21:05.518Z,6.70
2017-09-05T20:23:31.841Z,6.80
2017-09-05T20:25:58.201Z,7.27
2017-09-05T20:28:24.456Z,6.60
2017-09-05T20:30:50.758Z,6.77
2017-09-05T20:33:17.461Z,6.53
2017-09-05T20:35:43.751Z,6.93
2017-09-05T20:38:10.122Z,6.70
2017-09-05T20:40:36.805Z,6.90
2017-09-05T20:43:03.057Z,6.63
2017-09-05T20:45:29.383Z,7.17
2017-09-05T20:47:56.044Z,5.87
2017-09-05T20:50:22.358Z,6.87
2017-09-05T20:52:48.680Z,7.20
2017-09-05T20:55:15.015Z,6.90
2017-09-05T20:57:41.358Z,6.90
2017-09-05T21:00:07.659Z,7.07
2017-09-05T21:02:34.928Z,6.77
2017-09-05T21:05:01.228Z,6.87
2017-09-05T21:07:27.610Z,7.03
2017-09-05T21:09:54.321Z,7.43
2017-09-05T21:12:20.586Z,7.60
2017-09-05T21:14:46.901Z,5.90
2017-09-05T21:17:13.622Z,6.40
2017-09-05T21:19:39.928Z,6.80
2017-09-05T21:22:06.249Z,6.10
2017-09-05T21:24:32.580Z,6.70
2017-09-05T21:26:58.893Z,6.33
2017-09-05T21:29:25.215Z,6.67
2017-09-05T21:31:51.544Z,6.40
2017-09-05T21:34:17.803Z,6.50
2017-09-05T21:36:44.121Z,6.93
2017-09-05T21:39:10.445Z,6.57
2017-09-05T21:41:36.730Z,5.87
2017-09-05T21:44:03.036Z,6.77
2017-09-05T21:46:29.356Z,6.70
2017-09-05T21:48:55.659Z,7.17
2017-09-05T21:51:21.977Z,7.23
2017-09-05T21:53:48.687Z,7.10
2017-09-05T21:56:15.004Z,7.77
2017-09-05T21:58:41.280Z,7.60
2017-09-05T22:01:07.945Z,7.23
2017-09-05T22:03:34.222Z,7.43
2017-09-05T22:06:00.517Z,7.93
2017-09-05T22:08:26.810Z,8.50
2017-09-05T22:10:53.055Z,7.97
2017-09-05T22:13:19.365Z,8.60
2017-09-05T22:15:45.724Z,7.07
2017-09-05T22:18:12.042Z,7.37
2017-09-05T22:20:44.487Z,8.47
2017-09-05T22:23:10.801Z,7.87
2017-09-05T22:25:43.035Z,8.20
2017-09-05T22:28:15.398Z,7.70
2017-09-05T22:30:41.733Z,8.07
2017-09-05T22:33:08.032Z,7.27
2017-09-05T22:35:34.623Z,7.60
2017-09-05T22:38:00.917Z,8.10
2017-09-05T22:40:27.227Z,7.50
2017-09-05T22:42:53.895Z,6.40
2017-09-05T22:45:20.223Z,6.80
2017-09-05T22:47:46.477Z,7.30
2017-09-05T22:50:13.095Z,7.03
2017-09-05T22:52:39.368Z,14.13
2017-09-05T22:55:05.719Z,16.60
2017-09-05T22:57:32.420Z,15.90
2017-09-05T22:59:58.741Z,12.20
2017-09-05T23:02:25.106Z,9.07
2017-09-05T23:04:51.804Z,9.23
2017-09-05T23:07:18.087Z,8.50
2017-09-05T23:09:44.374Z,7.23
2017-09-05T23:12:10.939Z,6.20
2017-09-05T23:14:37.309Z,6.00
2017-09-05T23:17:03.619Z,6.20
2017-09-05T23:19:30.282Z,6.73
2017-09-05T23:21:56.599Z,7.40
2017-09-05T23:24:22.934Z,6.27
2017-09-05T23:26:49.486Z,7.20
2017-09-05T23:29:15.813Z,8.27
2017-09-05T23:31:42.069Z,7.83
2017-09-05T23:34:08.665Z,8.33
2017-09-05T23:36:34.967Z,7.30
2017-09-05T23:39:01.286Z,7.40
2017-09-05T23:41:27.983Z,6.80
2017-09-05T23:43:54.286Z,6.60
2017-09-05T23:46:20.641Z,6.60
2017-09-05T23:48:47.316Z,7.03
2017-09-05T23:51:13.631Z,8.00
2017-09-05T23:53:52.638Z,6.83
2017-09-05T23:56:18.944Z,7.00
2017-09-05T23:58:45.244Z,7.00
